createdAt,value
2019-04-11T00:01:12.253Z,3.35
2019-04-11T00:04:26.285Z,3.27
2019-04-11T00:07:40.512Z,3.20
2019-04-11T00:10:54.122Z,3.21
2019-04-11T00:14:07.703Z,3.13
2019-04-11T00:17:21.657Z,3.10
2019-04-11T00:20:36.050Z,3.06
2019-04-11T00:23:50.270Z,3.00
2019-04-11T00:27:04.574Z,2.90
2019-04-11T00:30:20.505Z,2.80
2019-04-11T00:33:34.320Z,2.75
2019-04-11T00:36:48.487Z,2.72
2019-04-11T00:40:03.788Z,2.62
2019-04-11T00:43:28.516Z,2.61
2019-04-11T00:46:34.125Z,2.52
2019-04-11T00:49:48.464Z,2.58
2019-04-11T00:53:03.467Z,2.55
2019-04-11T00:56:17.854Z,2.47
2019-04-11T00:59:32.217Z,2.46
2019-04-11T01:02:45.919Z,2.44
2019-04-11T01:05:59.835Z,2.38
2019-04-11T01:09:13.418Z,2.26
2019-04-11T01:12:26.998Z,2.25
2019-04-11T01:15:44.879Z,2.17
2019-04-11T01:18:58.706Z,2.12
2019-04-11T01:22:12.633Z,2.07
2019-04-11T01:25:26.766Z,2.01
2019-04-11T01:28:40.351Z,2.00
2019-04-11T01:31:58.592Z,1.95
2019-04-11T01:35:13.108Z,1.87
2019-04-11T01:38:28.273Z,1.86
2019-04-11T01:41:42.636Z,1.89
2019-04-11T01:44:56.903Z,1.86
2019-04-11T01:48:15.611Z,1.78
2019-04-11T01:51:29.689Z,1.76
2019-04-11T01:54:43.875Z,1.77
2019-04-11T01:57:58.367Z,1.73
2019-04-11T02:01:21.677Z,1.71
2019-04-11T02:04:46.355Z,1.65
2019-04-11T02:08:00.864Z,1.64
2019-04-11T02:11:15.060Z,1.61
2019-04-11T02:14:28.960Z,1.60
2019-04-11T02:17:43.218Z,1.57
2019-04-11T02:20:57.652Z,1.58
2019-04-11T02:24:32.010Z,1.56
2019-04-11T02:27:46.294Z,1.54
2019-04-11T02:31:02.489Z,1.46
2019-04-11T02:34:16.201Z,1.41
2019-04-11T02:37:31.535Z,1.35
2019-04-11T02:40:47.466Z,1.30
2019-04-11T02:44:01.642Z,1.29
2019-04-11T02:47:22.948Z,1.29
2019-04-11T02:50:34.296Z,1.23
2019-04-11T02:53:49.603Z,1.16
2019-04-11T02:57:05.582Z,1.16
2019-04-11T03:00:20.600Z,1.15
2019-04-11T03:03:34.486Z,1.15
2019-04-11T03:06:49.682Z,1.15
2019-04-11T03:10:04.899Z,1.14
2019-04-11T03:13:20.903Z,1.06
2019-04-11T03:16:46.191Z,1.09
2019-04-11T03:20:04.197Z,1.09
2019-04-11T03:23:08.602Z,1.08
2019-04-11T03:26:21.600Z,1.07
2019-04-11T03:29:36.350Z,1.06
2019-04-11T03:37:00.727Z,0.99
2019-04-11T03:39:43.592Z,1.00
2019-04-11T03:42:55.625Z,0.98
2019-04-11T03:46:14.265Z,1.00
2019-04-11T03:49:22.581Z,0.94
2019-04-11T03:52:26.070Z,0.83
2019-04-11T03:55:39.855Z,0.79
2019-04-11T03:58:55.192Z,0.75
2019-04-11T04:02:11.042Z,0.78
2019-04-11T04:05:26.366Z,0.77
2019-04-11T04:08:42.276Z,0.74
2019-04-11T04:11:56.868Z,0.70
2019-04-11T04:15:53.192Z,0.71
2019-04-11T04:19:11.111Z,0.68
2019-04-11T04:22:29.425Z,0.66
2019-04-11T04:25:46.802Z,0.61
2019-04-11T04:28:59.924Z,0.60
2019-04-11T04:32:14.280Z,0.57
2019-04-11T04:35:28.952Z,0.56
2019-04-11T04:38:44.575Z,0.61
2019-04-11T04:42:08.304Z,0.61
2019-04-11T04:45:16.245Z,0.55
2019-04-11T04:48:31.441Z,0.43
2019-04-11T04:51:47.886Z,0.34
2019-04-11T04:55:04.495Z,0.22
2019-04-11T04:58:20.204Z,0.19
2019-04-11T05:01:35.063Z,0.17
2019-04-11T05:04:48.746Z,0.13
2019-04-11T05:08:02.896Z,0.12
2019-04-11T05:11:17.980Z,0.18
2019-04-11T05:14:31.785Z,0.18
2019-04-11T05:17:46.284Z,0.20
2019-04-11T05:21:01.023Z,0.24
2019-04-11T05:24:14.847Z,0.31
2019-04-11T05:27:29.311Z,0.36
2019-04-11T05:30:42.774Z,0.38
2019-04-11T05:33:56.604Z,0.41
2019-04-11T05:37:11.109Z,0.47
2019-04-11T05:40:25.965Z,0.54
2019-04-11T05:43:41.307Z,0.59
2019-04-11T05:46:59.096Z,0.63
2019-04-11T05:50:31.933Z,0.70
2019-04-11T05:53:48.598Z,0.75
2019-04-11T05:57:01.377Z,0.78
2019-04-11T06:00:23.495Z,0.88
2019-04-11T06:03:41.100Z,0.93
2019-04-11T06:06:58.383Z,0.96
2019-04-11T06:10:16.382Z,1.00
2019-04-11T06:13:36.803Z,1.09
2019-04-11T06:16:55.738Z,1.20
2019-04-11T06:20:37.714Z,1.32
2019-04-11T06:24:12.037Z,1.37
2019-04-11T06:27:33.545Z,1.50
2019-04-11T06:31:06.111Z,1.70
2019-04-11T06:34:19.641Z,1.95
2019-04-11T06:37:47.171Z,2.25
2019-04-11T06:41:06.374Z,2.41
2019-04-11T06:44:42.754Z,2.62
2019-04-11T06:48:23.129Z,2.80
2019-04-11T06:51:42.404Z,3.09
2019-04-11T06:58:35.718Z,3.63
2019-04-11T07:01:52.832Z,3.72
2019-04-11T07:05:07.881Z,3.90
2019-04-11T07:08:25.122Z,4.10
2019-04-11T07:11:50.742Z,4.32
2019-04-11T07:15:10.133Z,4.56
2019-04-11T07:18:40.943Z,4.72
2019-04-11T07:21:54.450Z,4.77
2019-04-11T07:25:28.882Z,4.99
2019-04-11T07:29:02.297Z,5.21
2019-04-11T07:32:18.004Z,5.37
2019-04-11T07:35:52.980Z,5.50
2019-04-11T07:39:20.776Z,5.74
2019-04-11T07:42:47.063Z,5.81
2019-04-11T07:46:25.015Z,5.88
2019-04-11T07:49:39.200Z,6.00
2019-04-11T07:52:58.203Z,6.14
2019-04-11T07:56:27.715Z,6.30
2019-04-11T08:00:10.429Z,6.47
2019-04-11T08:03:36.043Z,6.38
2019-04-11T08:07:21.969Z,6.47
2019-04-11T08:10:41.466Z,6.64
2019-04-11T08:14:13.224Z,6.73
2019-04-11T08:17:36.847Z,6.77
2019-04-11T08:21:20.536Z,7.06
2019-04-11T08:24:48.973Z,7.27
2019-04-11T08:28:07.818Z,7.44
2019-04-11T08:31:38.652Z,7.66
2019-04-11T08:35:01.969Z,7.75
2019-04-11T08:38:22.421Z,7.73
2019-04-11T08:41:55.111Z,7.88
2019-04-11T08:45:10.716Z,7.88
2019-04-11T08:48:24.729Z,7.93
2019-04-11T08:51:39.134Z,8.25
2019-04-11T08:55:04.258Z,8.48
2019-04-11T08:58:22.714Z,8.38
2019-04-11T09:01:36.464Z,8.73
2019-04-11T09:05:13.668Z,8.88
2019-04-11T09:08:56.473Z,8.88
2019-04-11T09:12:12.178Z,8.79
2019-04-11T09:15:51.141Z,8.82
2019-04-11T09:19:14.601Z,9.25
2019-04-11T09:22:51.561Z,9.30
2019-04-11T09:26:31.975Z,9.47
2019-04-11T09:29:50.356Z,9.78
2019-04-11T09:33:24.672Z,9.84
2019-04-11T09:36:46.933Z,9.98
2019-04-11T09:40:17.762Z,10.10
2019-04-11T09:43:31.821Z,9.89
2019-04-11T09:47:08.039Z,9.93
2019-04-11T09:50:40.588Z,10.14
2019-04-11T09:54:20.958Z,10.92
2019-04-11T09:57:37.721Z,11.23
2019-04-11T10:01:29.457Z,11.22
2019-04-11T10:04:43.775Z,11.33
2019-04-11T10:08:17.165Z,11.36
2019-04-11T10:11:59.256Z,11.20
2019-04-11T10:15:13.566Z,11.28
2019-04-11T10:18:43.666Z,11.40
2019-04-11T10:22:18.513Z,11.42
2019-04-11T10:25:35.309Z,11.73
2019-04-11T10:29:08.689Z,11.84
2019-04-11T10:32:25.446Z,11.99
2019-04-11T10:35:57.227Z,12.50
2019-04-11T10:39:22.994Z,12.87
2019-04-11T10:42:36.915Z,13.18
2019-04-11T10:46:16.039Z,13.46
2019-04-11T10:49:48.411Z,13.46
2019-04-11T10:53:03.296Z,12.92
2019-04-11T10:56:31.019Z,12.74
2019-04-11T10:59:44.933Z,13.33
2019-04-11T11:03:07.652Z,13.58
2019-04-11T11:06:23.994Z,13.51
2019-04-11T11:10:09.336Z,13.63
2019-04-11T11:13:58.407Z,14.10
2019-04-11T11:18:20.517Z,15.04
2019-04-11T11:21:07.405Z,13.92
2019-04-11T11:24:38.222Z,13.64
2019-04-11T11:27:50.860Z,13.68
2019-04-11T11:31:12.499Z,14.14
2019-04-11T11:34:35.240Z,15.13
2019-04-11T11:37:53.440Z,15.80
2019-04-11T11:41:45.506Z,16.32
2019-04-11T11:45:04.158Z,15.58
2019-04-11T11:48:41.778Z,15.87
2019-04-11T11:52:15.277Z,15.28
2019-04-11T11:55:33.506Z,14.92
2019-04-11T11:59:11.160Z,14.67
2019-04-11T12:02:28.842Z,15.30
2019-04-11T12:05:50.208Z,15.71
2019-04-11T12:09:38.484Z,16.03
2019-04-11T12:13:13.317Z,16.48
2019-04-11T12:16:48.340Z,16.29
2019-04-11T12:20:22.945Z,16.34
2019-04-11T12:24:15.472Z,16.07
2019-04-11T12:27:47.459Z,16.46
2019-04-11T12:31:05.504Z,16.47
2019-04-11T12:34:45.007Z,16.26
2019-04-11T12:38:04.307Z,15.98
2019-04-11T12:41:37.083Z,16.11
2019-04-11T12:45:09.106Z,15.81
2019-04-11T12:48:27.319Z,15.82
2019-04-11T12:52:09.149Z,16.01
2019-04-11T12:55:33.887Z,15.92
2019-04-11T12:59:25.647Z,15.89
2019-04-11T13:03:04.583Z,16.20
2019-04-11T13:06:34.577Z,15.83
2019-04-11T13:09:50.787Z,16.15
2019-04-11T13:13:24.149Z,16.56
2019-04-11T13:16:38.276Z,16.81
2019-04-11T13:20:10.813Z,16.53
2019-04-11T13:23:46.697Z,16.16
2019-04-11T13:27:26.149Z,15.57
2019-04-11T13:31:10.820Z,15.91
2019-04-11T13:34:24.918Z,16.44
2019-04-11T13:37:56.591Z,16.37
2019-04-11T13:41:28.460Z,16.51
2019-04-11T13:44:42.652Z,17.04
2019-04-11T13:48:14.314Z,17.27
2019-04-11T13:51:53.067Z,17.12
2019-04-11T13:55:24.521Z,17.18
2019-04-11T13:58:56.672Z,17.18
2019-04-11T14:02:18.858Z,16.71
2019-04-11T14:05:34.080Z,16.22
2019-04-11T14:09:10.299Z,16.66
2019-04-11T14:12:26.209Z,17.32
2019-04-11T14:15:40.804Z,17.42
2019-04-11T14:19:02.287Z,17.20
2019-04-11T14:22:16.641Z,17.49
2019-04-11T14:25:49.298Z,17.64
2019-04-11T14:29:25.618Z,18.07
2019-04-11T14:32:43.149Z,17.46
2019-04-11T14:36:34.798Z,17.68
2019-04-11T14:39:50.980Z,17.44
2019-04-11T14:43:23.354Z,17.17
2019-04-11T14:46:58.322Z,17.19
2019-04-11T14:50:12.371Z,16.92
2019-04-11T14:53:33.546Z,17.04
2019-04-11T14:57:06.385Z,17.31
2019-04-11T15:00:29.728Z,17.19
2019-04-11T15:04:01.611Z,17.37
2019-04-11T15:07:15.663Z,18.01
2019-04-11T15:10:49.133Z,18.55
2019-04-11T15:14:12.177Z,18.58
2019-04-11T15:17:28.662Z,17.70
2019-04-11T15:20:55.500Z,17.37
2019-04-11T15:24:08.164Z,17.27
2019-04-11T15:27:40.995Z,16.80
2019-04-11T15:30:57.397Z,16.72
2019-04-11T15:34:26.563Z,16.15
2019-04-11T15:37:58.420Z,16.75
2019-04-11T15:41:11.904Z,16.68
2019-04-11T15:44:48.352Z,16.44
2019-04-11T15:48:23.448Z,16.15
2019-04-11T15:51:44.931Z,16.11
2019-04-11T15:55:17.219Z,15.72
2019-04-11T15:58:37.318Z,15.75
2019-04-11T16:02:13.256Z,16.04
2019-04-11T16:05:49.750Z,16.26
2019-04-11T16:09:09.738Z,16.30
2019-04-11T16:12:30.922Z,16.49
2019-04-11T16:15:44.548Z,16.71
2019-04-11T16:19:17.995Z,16.41
2019-04-11T16:22:59.460Z,16.41
2019-04-11T16:26:17.385Z,16.16
2019-04-11T16:29:38.670Z,15.94
2019-04-11T16:33:06.284Z,15.77
2019-04-11T16:36:39.417Z,15.14
2019-04-11T16:40:11.187Z,14.89
2019-04-11T16:43:25.157Z,14.37
2019-04-11T16:46:56.805Z,14.04
2019-04-11T16:50:10.492Z,14.21
2019-04-11T16:53:24.060Z,14.55
2019-04-11T16:56:37.820Z,14.65
2019-04-11T16:59:51.435Z,14.73
2019-04-11T17:03:04.917Z,14.30
2019-04-11T17:06:36.962Z,14.05
2019-04-11T17:09:51.164Z,14.15
2019-04-11T17:13:04.628Z,14.16
2019-04-11T17:16:19.638Z,14.08
2019-04-11T17:19:35.816Z,13.26
2019-04-11T17:22:49.321Z,13.17
2019-04-11T17:26:03.448Z,12.93
2019-04-11T17:29:16.905Z,12.56
2019-04-11T17:32:30.633Z,12.17
2019-04-11T17:35:44.226Z,11.63
2019-04-11T17:38:57.687Z,11.34
2019-04-11T17:42:13.295Z,11.12
2019-04-11T17:45:26.868Z,10.85
2019-04-11T17:48:40.367Z,10.72
2019-04-11T17:51:56.000Z,10.61
2019-04-11T17:55:09.837Z,10.49
2019-04-11T17:58:26.762Z,10.45
2019-04-11T18:01:38.708Z,10.24
2019-04-11T18:04:52.462Z,10.13
2019-04-11T18:08:06.026Z,10.04
2019-04-11T18:11:19.980Z,9.94
2019-04-11T18:14:33.443Z,9.77
2019-04-11T18:17:46.912Z,9.58
2019-04-11T18:21:00.574Z,9.39
2019-04-11T18:24:14.044Z,9.06
2019-04-11T18:27:27.496Z,8.90
2019-04-11T18:30:42.565Z,8.73
2019-04-11T18:33:56.159Z,8.60
2019-04-11T18:37:09.971Z,8.45
2019-04-11T18:40:23.552Z,8.33
2019-04-11T18:43:36.999Z,8.05
2019-04-11T18:46:50.868Z,7.77
2019-04-11T18:50:06.162Z,7.72
2019-04-11T18:53:19.614Z,7.62
2019-04-11T18:56:33.296Z,7.48
2019-04-11T18:59:46.762Z,7.37
2019-04-11T19:03:00.331Z,7.31
2019-04-11T19:06:14.251Z,7.19
2019-04-11T19:09:28.203Z,7.10
2019-04-11T19:12:43.962Z,6.89
2019-04-11T19:15:57.043Z,6.75
2019-04-11T19:19:10.609Z,6.70
2019-04-11T19:22:37.044Z,6.60
2019-04-11T19:25:44.254Z,6.49
2019-04-11T19:28:55.785Z,6.40
2019-04-11T19:32:09.704Z,6.38
2019-04-11T19:35:23.183Z,6.37
2019-04-11T19:38:37.159Z,6.22
2019-04-11T19:41:50.624Z,6.15
2019-04-11T19:45:05.992Z,6.14
2019-04-11T19:48:19.448Z,6.02
2019-04-11T19:51:32.936Z,5.96
2019-04-11T19:54:46.421Z,5.98
2019-04-11T19:57:59.870Z,5.95
2019-04-11T20:01:13.363Z,5.83
2019-04-11T20:04:27.159Z,5.65
2019-04-11T20:07:40.627Z,5.43
2019-04-11T20:10:54.083Z,5.26
2019-04-11T20:14:07.981Z,5.14
2019-04-11T20:17:21.512Z,5.02
2019-04-11T20:20:37.028Z,4.94
2019-04-11T20:23:50.392Z,4.85
2019-04-11T20:27:03.839Z,4.75
2019-04-11T20:30:17.696Z,4.70
2019-04-11T20:33:34.705Z,4.55
2019-04-11T20:36:46.867Z,4.41
2019-04-11T20:40:00.336Z,4.33
2019-04-11T20:43:13.797Z,4.29
2019-04-11T20:46:29.198Z,4.28
2019-04-11T20:49:48.789Z,4.19
2019-04-11T20:53:11.937Z,4.11
2019-04-11T20:56:24.010Z,4.11
2019-04-11T20:59:34.737Z,4.14
2019-04-11T21:02:48.477Z,4.14
2019-04-11T21:06:02.566Z,4.13
2019-04-11T21:09:16.175Z,4.12
2019-04-11T21:12:29.916Z,4.13
2019-04-11T21:15:43.385Z,3.99
2019-04-11T21:18:56.930Z,3.94
2019-04-11T21:22:10.422Z,3.94
2019-04-11T21:25:26.090Z,3.91
2019-04-11T21:28:39.618Z,3.88
2019-04-11T21:31:53.098Z,3.78
2019-04-11T21:35:06.663Z,3.76
2019-04-11T21:38:20.329Z,3.70
2019-04-11T21:41:36.049Z,3.76
2019-04-11T21:44:49.191Z,3.79
2019-04-11T21:48:05.616Z,3.80
2019-04-11T21:51:18.498Z,3.63
2019-04-11T21:54:31.948Z,3.64
2019-04-11T21:57:48.355Z,3.61
2019-04-11T22:01:06.850Z,3.43
2019-04-11T22:04:39.996Z,3.58
2019-04-11T22:07:53.454Z,3.65
2019-04-11T22:11:09.839Z,3.63
2019-04-11T22:14:22.964Z,3.55
2019-04-11T22:17:36.414Z,3.61
2019-04-11T22:20:49.874Z,3.72
2019-04-11T22:24:03.561Z,3.67
2019-04-11T22:27:17.133Z,3.62
2019-04-11T22:30:30.592Z,3.48
2019-04-11T22:33:48.142Z,3.43
2019-04-11T22:37:01.781Z,3.42
2019-04-11T22:40:15.646Z,3.32
2019-04-11T22:43:29.376Z,3.25
2019-04-11T22:46:43.179Z,3.20
2019-04-11T22:49:56.773Z,3.15
2019-04-11T22:53:12.878Z,3.13
2019-04-11T22:56:25.615Z,3.05
2019-04-11T22:59:39.121Z,3.04
2019-04-11T23:03:12.251Z,2.94
2019-04-11T23:06:25.695Z,2.83
2019-04-11T23:09:39.163Z,2.68
2019-04-11T23:12:52.960Z,2.61
2019-04-11T23:16:06.534Z,2.65
2019-04-11T23:19:20.011Z,2.61
2019-04-11T23:22:33.516Z,2.53
2019-04-11T23:25:46.932Z,2.37
2019-04-11T23:29:00.951Z,2.34
2019-04-11T23:32:14.432Z,2.33
2019-04-11T23:35:27.918Z,2.26
2019-04-11T23:38:41.374Z,2.22
2019-04-11T23:41:55.155Z,2.18
2019-04-11T23:45:08.744Z,2.14
2019-04-11T23:48:24.012Z,2.02
2019-04-11T23:51:38.268Z,1.94
2019-04-11T23:54:52.291Z,1.97
2019-04-11T23:58:05.757Z,1.88
